sensor_id;sensor_type;location;lat;lon;timestamp;temperature;humidity
71173;DHT22;58875;51.996;4.504;2023-07-29T00:01:42;19.18;77.06
71173;DHT22;58875;51.996;4.504;2023-07-29T00:04:08;19.16;77.02
71173;DHT22;58875;51.996;4.504;2023-07-29T00:06:37;19.12;77.11
71173;DHT22;58875;51.996;4.504;2023-07-29T00:09:03;19.13;77.17
71173;DHT22;58875;51.996;4.504;2023-07-29T00:11:28;19.19;77.10
71173;DHT22;58875;51.996;4.504;2023-07-29T00:13:54;19.15;76.99
71173;DHT22;58875;51.996;4.504;2023-07-29T00:16:20;19.12;77.15
71173;DHT22;58875;51.996;4.504;2023-07-29T00:18:49;19.18;76.91
71173;DHT22;58875;51.996;4.504;2023-07-29T00:21:14;19.12;76.82
71173;DHT22;58875;51.996;4.504;2023-07-29T00:23:40;19.13;77.06
71173;DHT22;58875;51.996;4.504;2023-07-29T00:26:05;19.12;76.93
71173;DHT22;58875;51.996;4.504;2023-07-29T00:28:31;19.01;77.24
71173;DHT22;58875;51.996;4.504;2023-07-29T00:30:57;19.01;77.09
71173;DHT22;58875;51.996;4.504;2023-07-29T00:33:22;18.96;77.25
71173;DHT22;58875;51.996;4.504;2023-07-29T00:35:48;18.98;77.16
71173;DHT22;58875;51.996;4.504;2023-07-29T00:38:13;18.99;77.32
71173;DHT22;58875;51.996;4.504;2023-07-29T00:40:39;19.03;77.16
71173;DHT22;58875;51.996;4.504;2023-07-29T00:43:04;18.99;76.88
71173;DHT22;58875;51.996;4.504;2023-07-29T00:45:32;19.03;77.08
71173;DHT22;58875;51.996;4.504;2023-07-29T00:47:59;19.11;76.89
71173;DHT22;58875;51.996;4.504;2023-07-29T00:50:26;19.05;76.99
71173;DHT22;58875;51.996;4.504;2023-07-29T00:52:54;19.09;77.10
71173;DHT22;58875;51.996;4.504;2023-07-29T00:55:20;19.09;77.17
71173;DHT22;58875;51.996;4.504;2023-07-29T00:57:45;19.05;77.29
71173;DHT22;58875;51.996;4.504;2023-07-29T01:00:14;18.95;77.71
71173;DHT22;58875;51.996;4.504;2023-07-29T01:02:42;18.92;78.01
71173;DHT22;58875;51.996;4.504;2023-07-29T01:05:08;18.96;77.93
71173;DHT22;58875;51.996;4.504;2023-07-29T01:07:46;18.91;77.85
71173;DHT22;58875;51.996;4.504;2023-07-29T01:10:26;18.81;77.71
71173;DHT22;58875;51.996;4.504;2023-07-29T01:13:10;18.87;77.61
71173;DHT22;58875;51.996;4.504;2023-07-29T01:15:47;18.74;77.39
71173;DHT22;58875;51.996;4.504;2023-07-29T01:18:26;18.69;77.52
71173;DHT22;58875;51.996;4.504;2023-07-29T01:20:55;18.78;77.25
71173;DHT22;58875;51.996;4.504;2023-07-29T01:23:25;18.79;77.20
71173;DHT22;58875;51.996;4.504;2023-07-29T01:25:50;18.84;77.12
71173;DHT22;58875;51.996;4.504;2023-07-29T01:28:16;18.75;76.79
71173;DHT22;58875;51.996;4.504;2023-07-29T01:30:43;18.72;76.91
71173;DHT22;58875;51.996;4.504;2023-07-29T01:33:26;18.81;76.98
71173;DHT22;58875;51.996;4.504;2023-07-29T01:36:03;18.75;76.95
71173;DHT22;58875;51.996;4.504;2023-07-29T01:38:36;18.74;76.53
71173;DHT22;58875;51.996;4.504;2023-07-29T01:41:05;18.76;76.61
71173;DHT22;58875;51.996;4.504;2023-07-29T01:43:32;18.74;76.86
71173;DHT22;58875;51.996;4.504;2023-07-29T01:46:00;18.74;76.64
71173;DHT22;58875;51.996;4.504;2023-07-29T01:48:26;18.72;76.77
71173;DHT22;58875;51.996;4.504;2023-07-29T01:50:53;18.72;76.60
71173;DHT22;58875;51.996;4.504;2023-07-29T01:53:18;18.71;76.55
71173;DHT22;58875;51.996;4.504;2023-07-29T01:55:44;18.69;76.62
71173;DHT22;58875;51.996;4.504;2023-07-29T01:58:10;18.60;76.72
71173;DHT22;58875;51.996;4.504;2023-07-29T02:00:36;18.53;77.26
71173;DHT22;58875;51.996;4.504;2023-07-29T02:03:01;18.53;77.18
71173;DHT22;58875;51.996;4.504;2023-07-29T02:05:27;18.50;77.24
71173;DHT22;58875;51.996;4.504;2023-07-29T02:07:52;18.50;77.27
71173;DHT22;58875;51.996;4.504;2023-07-29T02:10:18;18.54;77.36
71173;DHT22;58875;51.996;4.504;2023-07-29T02:12:43;18.57;77.22
71173;DHT22;58875;51.996;4.504;2023-07-29T02:15:09;18.50;77.23
71173;DHT22;58875;51.996;4.504;2023-07-29T02:17:35;18.45;77.54
71173;DHT22;58875;51.996;4.504;2023-07-29T02:20:02;18.47;77.45
71173;DHT22;58875;51.996;4.504;2023-07-29T02:22:29;18.47;77.43
71173;DHT22;58875;51.996;4.504;2023-07-29T02:24:55;18.43;77.76
71173;DHT22;58875;51.996;4.504;2023-07-29T02:27:21;18.51;77.62
71173;DHT22;58875;51.996;4.504;2023-07-29T02:29:46;18.53;77.33
71173;DHT22;58875;51.996;4.504;2023-07-29T02:32:12;18.45;77.42
71173;DHT22;58875;51.996;4.504;2023-07-29T02:34:38;18.38;77.70
71173;DHT22;58875;51.996;4.504;2023-07-29T02:37:03;18.36;77.78
71173;DHT22;58875;51.996;4.504;2023-07-29T02:39:29;18.30;78.01
71173;DHT22;58875;51.996;4.504;2023-07-29T02:41:54;18.37;78.09
71173;DHT22;58875;51.996;4.504;2023-07-29T02:44:21;18.48;77.79
71173;DHT22;58875;51.996;4.504;2023-07-29T02:46:46;18.50;77.63
71173;DHT22;58875;51.996;4.504;2023-07-29T02:49:12;18.51;77.68
71173;DHT22;58875;51.996;4.504;2023-07-29T02:51:37;18.45;77.57
71173;DHT22;58875;51.996;4.504;2023-07-29T02:54:03;18.47;77.85
71173;DHT22;58875;51.996;4.504;2023-07-29T02:56:28;18.54;77.46
71173;DHT22;58875;51.996;4.504;2023-07-29T02:58:55;18.47;77.78
71173;DHT22;58875;51.996;4.504;2023-07-29T03:01:22;18.36;78.05
71173;DHT22;58875;51.996;4.504;2023-07-29T03:03:48;18.43;78.12
71173;DHT22;58875;51.996;4.504;2023-07-29T03:06:14;18.44;78.05
71173;DHT22;58875;51.996;4.504;2023-07-29T03:08:40;18.40;77.78
71173;DHT22;58875;51.996;4.504;2023-07-29T03:11:13;18.37;78.36
71173;DHT22;58875;51.996;4.504;2023-07-29T03:13:39;18.36;78.43
71173;DHT22;58875;51.996;4.504;2023-07-29T03:16:10;18.43;78.33
71173;DHT22;58875;51.996;4.504;2023-07-29T03:18:35;18.34;78.42
71173;DHT22;58875;51.996;4.504;2023-07-29T03:21:02;18.23;78.68
71173;DHT22;58875;51.996;4.504;2023-07-29T03:23:29;18.20;78.91
71173;DHT22;58875;51.996;4.504;2023-07-29T03:25:59;18.18;78.95
71173;DHT22;58875;51.996;4.504;2023-07-29T03:28:27;18.18;79.04
71173;DHT22;58875;51.996;4.504;2023-07-29T03:30:53;18.26;78.83
71173;DHT22;58875;51.996;4.504;2023-07-29T03:33:19;18.24;79.01
71173;DHT22;58875;51.996;4.504;2023-07-29T03:35:45;18.23;79.11
71173;DHT22;58875;51.996;4.504;2023-07-29T03:38:11;18.24;79.15
71173;DHT22;58875;51.996;4.504;2023-07-29T03:40:38;18.34;78.82
71173;DHT22;58875;51.996;4.504;2023-07-29T03:43:04;18.33;78.84
71173;DHT22;58875;51.996;4.504;2023-07-29T03:45:30;18.34;78.72
71173;DHT22;58875;51.996;4.504;2023-07-29T03:47:55;18.27;79.09
71173;DHT22;58875;51.996;4.504;2023-07-29T03:50:21;18.20;79.23
71173;DHT22;58875;51.996;4.504;2023-07-29T03:52:46;18.26;79.00
71173;DHT22;58875;51.996;4.504;2023-07-29T03:55:12;18.30;79.01
71173;DHT22;58875;51.996;4.504;2023-07-29T03:57:37;18.36;78.86
71173;DHT22;58875;51.996;4.504;2023-07-29T04:00:03;18.33;78.90
71173;DHT22;58875;51.996;4.504;2023-07-29T04:02:29;18.27;79.04
71173;DHT22;58875;51.996;4.504;2023-07-29T04:04:54;18.23;79.26
71173;DHT22;58875;51.996;4.504;2023-07-29T04:07:20;18.33;79.05
71173;DHT22;58875;51.996;4.504;2023-07-29T04:09:45;18.30;79.10
71173;DHT22;58875;51.996;4.504;2023-07-29T04:12:11;18.30;79.26
71173;DHT22;58875;51.996;4.504;2023-07-29T04:14:37;18.40;78.89
71173;DHT22;58875;51.996;4.504;2023-07-29T04:17:02;18.34;79.08
71173;DHT22;58875;51.996;4.504;2023-07-29T04:19:28;18.40;79.09
71173;DHT22;58875;51.996;4.504;2023-07-29T04:21:53;18.36;79.12
71173;DHT22;58875;51.996;4.504;2023-07-29T04:24:19;18.29;79.41
71173;DHT22;58875;51.996;4.504;2023-07-29T04:26:45;18.27;79.46
71173;DHT22;58875;51.996;4.504;2023-07-29T04:29:11;18.36;79.34
71173;DHT22;58875;51.996;4.504;2023-07-29T04:31:42;18.31;79.16
71173;DHT22;58875;51.996;4.504;2023-07-29T04:34:08;18.33;79.49
71173;DHT22;58875;51.996;4.504;2023-07-29T04:36:34;18.30;79.45
71173;DHT22;58875;51.996;4.504;2023-07-29T04:39:00;18.23;79.72
71173;DHT22;58875;51.996;4.504;2023-07-29T04:41:25;18.14;80.00
71173;DHT22;58875;51.996;4.504;2023-07-29T04:43:51;18.20;80.02
71173;DHT22;58875;51.996;4.504;2023-07-29T04:46:16;18.20;79.97
71173;DHT22;58875;51.996;4.504;2023-07-29T04:48:42;18.23;80.14
71173;DHT22;58875;51.996;4.504;2023-07-29T04:51:07;18.20;80.08
71173;DHT22;58875;51.996;4.504;2023-07-29T04:53:33;18.14;80.46
71173;DHT22;58875;51.996;4.504;2023-07-29T04:56:00;18.18;80.55
71173;DHT22;58875;51.996;4.504;2023-07-29T04:58:25;18.24;80.68
71173;DHT22;58875;51.996;4.504;2023-07-29T05:00:52;18.31;80.25
71173;DHT22;58875;51.996;4.504;2023-07-29T05:03:17;18.29;80.23
71173;DHT22;58875;51.996;4.504;2023-07-29T05:05:42;18.31;79.99
71173;DHT22;58875;51.996;4.504;2023-07-29T05:08:08;18.34;80.08
71173;DHT22;58875;51.996;4.504;2023-07-29T05:10:35;18.33;80.21
71173;DHT22;58875;51.996;4.504;2023-07-29T05:13:00;18.37;80.13
71173;DHT22;58875;51.996;4.504;2023-07-29T05:15:25;18.37;80.36
71173;DHT22;58875;51.996;4.504;2023-07-29T05:17:51;18.43;80.09
71173;DHT22;58875;51.996;4.504;2023-07-29T05:20:16;18.45;80.09
71173;DHT22;58875;51.996;4.504;2023-07-29T05:22:42;18.60;80.06
71173;DHT22;58875;51.996;4.504;2023-07-29T05:25:08;18.65;79.60
71173;DHT22;58875;51.996;4.504;2023-07-29T05:27:33;18.68;79.56
71173;DHT22;58875;51.996;4.504;2023-07-29T05:29:59;18.67;79.62
71173;DHT22;58875;51.996;4.504;2023-07-29T05:32:24;18.72;79.70
71173;DHT22;58875;51.996;4.504;2023-07-29T05:34:49;18.75;79.65
71173;DHT22;58875;51.996;4.504;2023-07-29T05:37:15;18.74;79.72
71173;DHT22;58875;51.996;4.504;2023-07-29T05:39:41;18.76;79.77
71173;DHT22;58875;51.996;4.504;2023-07-29T05:42:07;18.71;79.82
71173;DHT22;58875;51.996;4.504;2023-07-29T05:44:33;18.69;80.17
71173;DHT22;58875;51.996;4.504;2023-07-29T05:46:59;18.76;79.96
71173;DHT22;58875;51.996;4.504;2023-07-29T05:49:24;18.79;79.91
71173;DHT22;58875;51.996;4.504;2023-07-29T05:51:50;18.78;80.10
71173;DHT22;58875;51.996;4.504;2023-07-29T05:54:20;18.81;80.29
71173;DHT22;58875;51.996;4.504;2023-07-29T05:56:45;18.88;80.26
71173;DHT22;58875;51.996;4.504;2023-07-29T05:59:11;18.91;80.13
71173;DHT22;58875;51.996;4.504;2023-07-29T06:01:36;19.01;80.21
71173;DHT22;58875;51.996;4.504;2023-07-29T06:04:02;19.03;80.02
71173;DHT22;58875;51.996;4.504;2023-07-29T06:06:27;18.96;79.92
71173;DHT22;58875;51.996;4.504;2023-07-29T06:08:53;19.02;80.27
71173;DHT22;58875;51.996;4.504;2023-07-29T06:11:18;19.05;80.15
71173;DHT22;58875;51.996;4.504;2023-07-29T06:13:44;19.08;80.12
71173;DHT22;58875;51.996;4.504;2023-07-29T06:16:09;19.20;79.93
71173;DHT22;58875;51.996;4.504;2023-07-29T06:18:35;19.20;79.52
71173;DHT22;58875;51.996;4.504;2023-07-29T06:21:00;19.22;79.69
71173;DHT22;58875;51.996;4.504;2023-07-29T06:23:26;19.22;79.58
71173;DHT22;58875;51.996;4.504;2023-07-29T06:25:51;19.20;79.49
71173;DHT22;58875;51.996;4.504;2023-07-29T06:28:17;19.19;79.88
71173;DHT22;58875;51.996;4.504;2023-07-29T06:30:43;19.30;79.74
71173;DHT22;58875;51.996;4.504;2023-07-29T06:33:08;19.42;79.51
71173;DHT22;58875;51.996;4.504;2023-07-29T06:35:34;19.40;79.11
71173;DHT22;58875;51.996;4.504;2023-07-29T06:38:00;19.42;79.12
71173;DHT22;58875;51.996;4.504;2023-07-29T06:40:25;19.54;79.06
71173;DHT22;58875;51.996;4.504;2023-07-29T06:42:51;19.66;78.95
71173;DHT22;58875;51.996;4.504;2023-07-29T06:45:17;19.85;78.41
71173;DHT22;58875;51.996;4.504;2023-07-29T06:47:42;19.80;78.19
71173;DHT22;58875;51.996;4.504;2023-07-29T06:50:08;19.90;77.97
71173;DHT22;58875;51.996;4.504;2023-07-29T06:52:34;19.94;77.69
71173;DHT22;58875;51.996;4.504;2023-07-29T06:54:59;19.80;77.76
71173;DHT22;58875;51.996;4.504;2023-07-29T06:57:25;19.67;78.29
71173;DHT22;58875;51.996;4.504;2023-07-29T06:59:50;19.69;78.62
71173;DHT22;58875;51.996;4.504;2023-07-29T07:02:16;19.84;78.86
71173;DHT22;58875;51.996;4.504;2023-07-29T07:04:41;19.80;77.53
71173;DHT22;58875;51.996;4.504;2023-07-29T07:07:07;19.80;77.09
71173;DHT22;58875;51.996;4.504;2023-07-29T07:09:33;19.81;77.09
71173;DHT22;58875;51.996;4.504;2023-07-29T07:11:58;19.90;77.30
71173;DHT22;58875;51.996;4.504;2023-07-29T07:14:24;19.93;76.72
71173;DHT22;58875;51.996;4.504;2023-07-29T07:16:49;19.80;76.77
71173;DHT22;58875;51.996;4.504;2023-07-29T07:19:15;19.84;76.72
71173;DHT22;58875;51.996;4.504;2023-07-29T07:21:40;20.20;75.98
71173;DHT22;58875;51.996;4.504;2023-07-29T07:24:06;20.45;74.92
71173;DHT22;58875;51.996;4.504;2023-07-29T07:26:31;20.48;73.70
71173;DHT22;58875;51.996;4.504;2023-07-29T07:28:57;20.59;73.85
71173;DHT22;58875;51.996;4.504;2023-07-29T07:31:22;20.65;73.55
71173;DHT22;58875;51.996;4.504;2023-07-29T07:33:48;20.71;72.55
71173;DHT22;58875;51.996;4.504;2023-07-29T07:36:14;20.83;72.59
71173;DHT22;58875;51.996;4.504;2023-07-29T07:38:41;20.73;71.95
71173;DHT22;58875;51.996;4.504;2023-07-29T07:41:06;20.57;71.91
71173;DHT22;58875;51.996;4.504;2023-07-29T07:43:32;20.41;71.51
71173;DHT22;58875;51.996;4.504;2023-07-29T07:45:59;20.18;72.46
71173;DHT22;58875;51.996;4.504;2023-07-29T07:48:26;20.04;72.85
71173;DHT22;58875;51.996;4.504;2023-07-29T07:50:51;20.11;72.20
71173;DHT22;58875;51.996;4.504;2023-07-29T07:53:17;20.45;71.07
71173;DHT22;58875;51.996;4.504;2023-07-29T07:55:42;20.71;71.16
71173;DHT22;58875;51.996;4.504;2023-07-29T07:58:08;20.97;70.34
71173;DHT22;58875;51.996;4.504;2023-07-29T08:00:33;21.07;70.03
71173;DHT22;58875;51.996;4.504;2023-07-29T08:02:59;21.13;70.60
71173;DHT22;58875;51.996;4.504;2023-07-29T08:05:24;21.24;70.02
71173;DHT22;58875;51.996;4.504;2023-07-29T08:07:50;21.48;69.30
71173;DHT22;58875;51.996;4.504;2023-07-29T08:10:15;21.23;68.33
71173;DHT22;58875;51.996;4.504;2023-07-29T08:12:41;21.16;69.10
71173;DHT22;58875;51.996;4.504;2023-07-29T08:15:06;21.19;68.82
71173;DHT22;58875;51.996;4.504;2023-07-29T08:17:32;21.41;68.36
71173;DHT22;58875;51.996;4.504;2023-07-29T08:19:57;21.45;67.20
71173;DHT22;58875;51.996;4.504;2023-07-29T08:22:23;21.69;67.28
71173;DHT22;58875;51.996;4.504;2023-07-29T08:24:48;21.50;66.96
71173;DHT22;58875;51.996;4.504;2023-07-29T08:27:14;21.19;67.40
71173;DHT22;58875;51.996;4.504;2023-07-29T08:29:39;20.97;68.46
71173;DHT22;58875;51.996;4.504;2023-07-29T08:32:05;20.80;69.21
71173;DHT22;58875;51.996;4.504;2023-07-29T08:34:31;20.69;70.35
71173;DHT22;58875;51.996;4.504;2023-07-29T08:36:56;20.45;71.04
71173;DHT22;58875;51.996;4.504;2023-07-29T08:39:22;20.52;71.72
71173;DHT22;58875;51.996;4.504;2023-07-29T08:42:00;20.29;72.90
71173;DHT22;58875;51.996;4.504;2023-07-29T08:44:31;20.41;73.51
71173;DHT22;58875;51.996;4.504;2023-07-29T08:46:59;20.41;73.62
71173;DHT22;58875;51.996;4.504;2023-07-29T08:49:26;20.45;73.80
71173;DHT22;58875;51.996;4.504;2023-07-29T08:51:54;20.49;73.72
71173;DHT22;58875;51.996;4.504;2023-07-29T08:54:21;20.57;73.76
71173;DHT22;58875;51.996;4.504;2023-07-29T08:56:46;20.41;73.88
71173;DHT22;58875;51.996;4.504;2023-07-29T08:59:13;20.35;73.75
71173;DHT22;58875;51.996;4.504;2023-07-29T09:01:38;20.18;74.25
71173;DHT22;58875;51.996;4.504;2023-07-29T09:04:04;20.07;75.35
71173;DHT22;58875;51.996;4.504;2023-07-29T09:06:31;19.98;76.24
71173;DHT22;58875;51.996;4.504;2023-07-29T09:08:58;19.98;76.62
71173;DHT22;58875;51.996;4.504;2023-07-29T09:11:25;19.95;77.05
71173;DHT22;58875;51.996;4.504;2023-07-29T09:13:51;20.13;76.85
71173;DHT22;58875;51.996;4.504;2023-07-29T09:16:20;20.20;75.53
71173;DHT22;58875;51.996;4.504;2023-07-29T09:18:50;20.18;73.94
71173;DHT22;58875;51.996;4.504;2023-07-29T09:21:25;20.21;74.06
71173;DHT22;58875;51.996;4.504;2023-07-29T09:23:52;20.35;74.58
71173;DHT22;58875;51.996;4.504;2023-07-29T09:26:25;20.62;74.77
71173;DHT22;58875;51.996;4.504;2023-07-29T09:28:53;20.61;73.65
71173;DHT22;58875;51.996;4.504;2023-07-29T09:31:20;20.68;73.30
71173;DHT22;58875;51.996;4.504;2023-07-29T09:33:46;20.61;72.94
71173;DHT22;58875;51.996;4.504;2023-07-29T09:36:12;20.49;73.22
71173;DHT22;58875;51.996;4.504;2023-07-29T09:38:38;20.46;73.89
71173;DHT22;58875;51.996;4.504;2023-07-29T09:41:04;20.52;73.36
71173;DHT22;58875;51.996;4.504;2023-07-29T09:43:31;20.68;74.65
71173;DHT22;58875;51.996;4.504;2023-07-29T09:46:04;20.69;73.68
71173;DHT22;58875;51.996;4.504;2023-07-29T09:48:36;20.48;74.62
71173;DHT22;58875;51.996;4.504;2023-07-29T09:51:12;20.56;74.82
71173;DHT22;58875;51.996;4.504;2023-07-29T09:53:46;20.55;74.09
71173;DHT22;58875;51.996;4.504;2023-07-29T09:56:13;20.59;74.58
71173;DHT22;58875;51.996;4.504;2023-07-29T09:58:39;20.77;75.03
71173;DHT22;58875;51.996;4.504;2023-07-29T10:01:06;20.68;74.09
71173;DHT22;58875;51.996;4.504;2023-07-29T10:03:34;20.69;74.73
71173;DHT22;58875;51.996;4.504;2023-07-29T10:06:04;20.76;75.36
71173;DHT22;58875;51.996;4.504;2023-07-29T10:08:30;20.76;73.86
71173;DHT22;58875;51.996;4.504;2023-07-29T10:11:01;20.62;74.17
71173;DHT22;58875;51.996;4.504;2023-07-29T10:13:27;20.59;74.78
71173;DHT22;58875;51.996;4.504;2023-07-29T10:15:56;20.61;74.51
71173;DHT22;58875;51.996;4.504;2023-07-29T10:18:23;20.59;75.47
71173;DHT22;58875;51.996;4.504;2023-07-29T10:20:52;20.55;76.00
71173;DHT22;58875;51.996;4.504;2023-07-29T10:23:21;20.38;77.38
71173;DHT22;58875;51.996;4.504;2023-07-29T10:25:56;20.22;77.95
71173;DHT22;58875;51.996;4.504;2023-07-29T10:28:25;20.13;77.54
71173;DHT22;58875;51.996;4.504;2023-07-29T10:30:52;19.83;77.69
71173;DHT22;58875;51.996;4.504;2023-07-29T10:33:17;19.75;77.86
71173;DHT22;58875;51.996;4.504;2023-07-29T10:35:43;19.53;79.03
71173;DHT22;58875;51.996;4.504;2023-07-29T10:38:09;19.40;79.68
71173;DHT22;58875;51.996;4.504;2023-07-29T10:40:57;19.42;80.54
71173;DHT22;58875;51.996;4.504;2023-07-29T10:43:36;19.39;80.43
71173;DHT22;58875;51.996;4.504;2023-07-29T10:48:53;19.64;81.47
71173;DHT22;58875;51.996;4.504;2023-07-29T10:51:36;19.67;81.24
71173;DHT22;58875;51.996;4.504;2023-07-29T10:54:03;19.66;80.95
71173;DHT22;58875;51.996;4.504;2023-07-29T10:56:34;19.84;81.95
71173;DHT22;58875;51.996;4.504;2023-07-29T11:01:40;20.00;81.03
71173;DHT22;58875;51.996;4.504;2023-07-29T11:17:38;21.00;77.39
71173;DHT22;58875;51.996;4.504;2023-07-29T11:20:05;20.96;77.08
71173;DHT22;58875;51.996;4.504;2023-07-29T11:22:32;20.87;77.70
71173;DHT22;58875;51.996;4.504;2023-07-29T11:24:58;20.86;78.22
71173;DHT22;58875;51.996;4.504;2023-07-29T11:27:24;20.76;77.32
71173;DHT22;58875;51.996;4.504;2023-07-29T11:29:50;20.61;78.03
71173;DHT22;58875;51.996;4.504;2023-07-29T11:32:16;20.61;77.46
71173;DHT22;58875;51.996;4.504;2023-07-29T11:34:42;20.44;78.33
71173;DHT22;58875;51.996;4.504;2023-07-29T11:37:09;20.34;78.06
71173;DHT22;58875;51.996;4.504;2023-07-29T11:39:43;20.31;78.14
71173;DHT22;58875;51.996;4.504;2023-07-29T11:42:15;20.35;78.05
71173;DHT22;58875;51.996;4.504;2023-07-29T11:44:42;20.38;77.79
71173;DHT22;58875;51.996;4.504;2023-07-29T11:47:09;20.45;77.20
71173;DHT22;58875;51.996;4.504;2023-07-29T11:49:35;20.65;77.34
71173;DHT22;58875;51.996;4.504;2023-07-29T11:52:07;20.75;76.57
71173;DHT22;58875;51.996;4.504;2023-07-29T11:54:35;20.82;76.06
71173;DHT22;58875;51.996;4.504;2023-07-29T11:57:01;20.96;76.82
71173;DHT22;58875;51.996;4.504;2023-07-29T11:59:27;21.08;74.72
71173;DHT22;58875;51.996;4.504;2023-07-29T12:01:53;21.13;74.66
71173;DHT22;58875;51.996;4.504;2023-07-29T12:04:20;21.14;74.69
71173;DHT22;58875;51.996;4.504;2023-07-29T12:06:46;21.30;74.77
71173;DHT22;58875;51.996;4.504;2023-07-29T12:09:12;21.45;73.78
71173;DHT22;58875;51.996;4.504;2023-07-29T12:11:39;21.64;73.44
71173;DHT22;58875;51.996;4.504;2023-07-29T12:14:07;21.73;72.14
71173;DHT22;58875;51.996;4.504;2023-07-29T12:16:41;21.61;71.71
71173;DHT22;58875;51.996;4.504;2023-07-29T12:19:06;21.55;72.42
71173;DHT22;58875;51.996;4.504;2023-07-29T12:21:32;21.82;73.13
71173;DHT22;58875;51.996;4.504;2023-07-29T12:23:58;22.08;71.72
71173;DHT22;58875;51.996;4.504;2023-07-29T12:26:27;22.40;69.55
71173;DHT22;58875;51.996;4.504;2023-07-29T12:28:53;22.76;69.02
71173;DHT22;58875;51.996;4.504;2023-07-29T12:31:19;22.53;66.67
71173;DHT22;58875;51.996;4.504;2023-07-29T12:33:44;22.63;68.40
71173;DHT22;58875;51.996;4.504;2023-07-29T12:36:10;22.94;67.71
71173;DHT22;58875;51.996;4.504;2023-07-29T12:38:35;23.03;66.60
71173;DHT22;58875;51.996;4.504;2023-07-29T12:41:01;22.95;66.59
71173;DHT22;58875;51.996;4.504;2023-07-29T12:43:27;22.83;66.60
71173;DHT22;58875;51.996;4.504;2023-07-29T12:45:52;22.94;66.84
71173;DHT22;58875;51.996;4.504;2023-07-29T12:48:18;23.04;67.15
71173;DHT22;58875;51.996;4.504;2023-07-29T12:50:43;22.87;66.89
71173;DHT22;58875;51.996;4.504;2023-07-29T12:53:09;22.98;67.60
71173;DHT22;58875;51.996;4.504;2023-07-29T12:55:36;22.83;67.05
71173;DHT22;58875;51.996;4.504;2023-07-29T12:58:02;22.91;67.45
71173;DHT22;58875;51.996;4.504;2023-07-29T13:00:27;22.77;66.74
71173;DHT22;58875;51.996;4.504;2023-07-29T13:02:53;22.54;66.94
71173;DHT22;58875;51.996;4.504;2023-07-29T13:05:19;22.28;67.70
71173;DHT22;58875;51.996;4.504;2023-07-29T13:07:45;21.99;67.48
71173;DHT22;58875;51.996;4.504;2023-07-29T13:10:11;22.29;67.58
71173;DHT22;58875;51.996;4.504;2023-07-29T13:12:37;22.15;67.99
71173;DHT22;58875;51.996;4.504;2023-07-29T13:15:04;22.52;68.40
71173;DHT22;58875;51.996;4.504;2023-07-29T13:17:29;22.56;66.34
71173;DHT22;58875;51.996;4.504;2023-07-29T13:19:55;22.42;66.50
71173;DHT22;58875;51.996;4.504;2023-07-29T13:22:21;22.67;66.22
71173;DHT22;58875;51.996;4.504;2023-07-29T13:24:46;22.87;65.60
71173;DHT22;58875;51.996;4.504;2023-07-29T13:27:12;22.97;64.68
71173;DHT22;58875;51.996;4.504;2023-07-29T13:29:37;22.80;64.72
71173;DHT22;58875;51.996;4.504;2023-07-29T13:32:03;22.80;65.41
71173;DHT22;58875;51.996;4.504;2023-07-29T13:34:29;23.01;65.65
71173;DHT22;58875;51.996;4.504;2023-07-29T13:36:54;23.32;63.30
71173;DHT22;58875;51.996;4.504;2023-07-29T13:39:19;23.05;63.06
71173;DHT22;58875;51.996;4.504;2023-07-29T13:41:45;22.97;61.57
71173;DHT22;58875;51.996;4.504;2023-07-29T13:44:10;22.91;61.58
71173;DHT22;58875;51.996;4.504;2023-07-29T13:46:36;23.03;61.79
71173;DHT22;58875;51.996;4.504;2023-07-29T13:49:02;23.10;62.44
71173;DHT22;58875;51.996;4.504;2023-07-29T13:51:28;23.15;63.51
71173;DHT22;58875;51.996;4.504;2023-07-29T13:53:53;22.81;62.82
71173;DHT22;58875;51.996;4.504;2023-07-29T13:56:19;22.81;64.03
71173;DHT22;58875;51.996;4.504;2023-07-29T13:58:44;22.90;63.58
71173;DHT22;58875;51.996;4.504;2023-07-29T14:01:10;23.01;63.27
71173;DHT22;58875;51.996;4.504;2023-07-29T14:03:35;22.93;63.52
71173;DHT22;58875;51.996;4.504;2023-07-29T14:06:01;23.05;62.82
71173;DHT22;58875;51.996;4.504;2023-07-29T14:08:26;22.95;62.35
71173;DHT22;58875;51.996;4.504;2023-07-29T14:10:52;22.93;63.24
71173;DHT22;58875;51.996;4.504;2023-07-29T14:13:17;23.08;63.02
71173;DHT22;58875;51.996;4.504;2023-07-29T14:15:43;22.88;62.42
71173;DHT22;58875;51.996;4.504;2023-07-29T14:18:08;22.73;60.92
71173;DHT22;58875;51.996;4.504;2023-07-29T14:20:34;22.59;62.12
71173;DHT22;58875;51.996;4.504;2023-07-29T14:23:00;22.91;61.82
71173;DHT22;58875;51.996;4.504;2023-07-29T14:25:27;23.08;61.73
71173;DHT22;58875;51.996;4.504;2023-07-29T14:27:52;22.86;59.97
71173;DHT22;58875;51.996;4.504;2023-07-29T14:30:18;22.60;60.69
71173;DHT22;58875;51.996;4.504;2023-07-29T14:32:43;22.50;62.28
71173;DHT22;58875;51.996;4.504;2023-07-29T14:35:09;22.56;62.97
71173;DHT22;58875;51.996;4.504;2023-07-29T14:37:34;22.83;62.32
71173;DHT22;58875;51.996;4.504;2023-07-29T14:40:00;22.86;61.81
71173;DHT22;58875;51.996;4.504;2023-07-29T14:42:27;22.97;62.25
71173;DHT22;58875;51.996;4.504;2023-07-29T14:44:53;22.87;62.17
71173;DHT22;58875;51.996;4.504;2023-07-29T14:47:19;22.73;63.75
71173;DHT22;58875;51.996;4.504;2023-07-29T14:49:45;22.46;64.02
71173;DHT22;58875;51.996;4.504;2023-07-29T14:52:10;22.49;64.92
71173;DHT22;58875;51.996;4.504;2023-07-29T14:54:36;22.91;64.31
71173;DHT22;58875;51.996;4.504;2023-07-29T14:57:04;23.12;63.38
71173;DHT22;58875;51.996;4.504;2023-07-29T14:59:30;23.32;63.41
71173;DHT22;58875;51.996;4.504;2023-07-29T15:01:56;23.26;62.46
71173;DHT22;58875;51.996;4.504;2023-07-29T15:04:21;23.08;64.69
71173;DHT22;58875;51.996;4.504;2023-07-29T15:06:48;23.28;63.79
71173;DHT22;58875;51.996;4.504;2023-07-29T15:09:13;23.31;61.05
71173;DHT22;58875;51.996;4.504;2023-07-29T15:11:40;23.19;61.25
71173;DHT22;58875;51.996;4.504;2023-07-29T15:14:07;23.07;61.86
71173;DHT22;58875;51.996;4.504;2023-07-29T15:16:32;22.97;64.45
71173;DHT22;58875;51.996;4.504;2023-07-29T15:19:03;22.91;65.62
71173;DHT22;58875;51.996;4.504;2023-07-29T15:21:29;22.56;66.47
71173;DHT22;58875;51.996;4.504;2023-07-29T15:23:55;22.54;67.35
71173;DHT22;58875;51.996;4.504;2023-07-29T15:26:20;22.91;66.08
71173;DHT22;58875;51.996;4.504;2023-07-29T15:28:46;22.95;64.61
71173;DHT22;58875;51.996;4.504;2023-07-29T15:31:15;22.94;64.73
71173;DHT22;58875;51.996;4.504;2023-07-29T15:33:41;22.93;65.82
71173;DHT22;58875;51.996;4.504;2023-07-29T15:36:06;23.10;65.42
71173;DHT22;58875;51.996;4.504;2023-07-29T15:38:32;22.98;63.63
71173;DHT22;58875;51.996;4.504;2023-07-29T15:40:58;22.66;63.79
71173;DHT22;58875;51.996;4.504;2023-07-29T15:43:24;22.66;64.27
71173;DHT22;58875;51.996;4.504;2023-07-29T15:45:49;22.59;61.46